createdAt,value
2019-06-01T00:02:18.126Z,5.10
2019-06-01T00:04:49.380Z,4.50
2019-06-01T00:07:19.340Z,5.20
2019-06-01T00:09:49.658Z,5.12
2019-06-01T00:12:19.513Z,5.30
2019-06-01T00:14:49.989Z,5.35
2019-06-01T00:17:19.797Z,5.08
2019-06-01T00:19:50.312Z,4.50
2019-06-01T00:22:20.203Z,5.15
2019-06-01T00:24:50.276Z,4.90
2019-06-01T00:27:20.231Z,5.47
2019-06-01T00:29:50.022Z,6.10
2019-06-01T00:32:19.872Z,4.92
2019-06-01T00:34:49.960Z,5.20
2019-06-01T00:37:19.754Z,4.97
2019-06-01T00:39:49.936Z,6.22
2019-06-01T00:42:19.822Z,5.90
2019-06-01T00:44:50.428Z,5.40
2019-06-01T00:47:20.243Z,5.42
2019-06-01T00:49:51.085Z,5.30
2019-06-01T00:52:20.942Z,5.78
2019-06-01T00:54:51.722Z,5.97
2019-06-01T00:57:22.347Z,5.83
2019-06-01T00:59:53.651Z,5.50
2019-06-01T01:02:23.880Z,5.87
2019-06-01T01:05:14.221Z,5.40
2019-06-01T01:07:44.518Z,6.22
2019-06-01T01:10:15.431Z,5.53
2019-06-01T01:13:05.205Z,5.53
2019-06-01T01:15:35.553Z,6.37
2019-06-01T01:18:07.602Z,6.62
2019-06-01T01:20:38.068Z,6.20
2019-06-01T01:23:08.502Z,5.80
2019-06-01T01:25:38.376Z,6.20
2019-06-01T01:28:08.256Z,6.40
2019-06-01T01:30:38.099Z,5.65
2019-06-01T01:33:07.890Z,5.78
2019-06-01T01:35:37.705Z,6.65
2019-06-01T01:38:07.601Z,5.50
2019-06-01T01:40:37.409Z,5.97
2019-06-01T01:43:07.281Z,6.20
2019-06-01T01:45:37.188Z,5.80
2019-06-01T01:48:07.031Z,5.80
2019-06-01T01:50:36.822Z,5.45
2019-06-01T01:53:06.723Z,5.92
2019-06-01T01:55:36.516Z,5.12
2019-06-01T01:58:06.334Z,6.17
2019-06-01T02:00:42.452Z,5.42
2019-06-01T02:03:12.325Z,5.30
2019-06-01T02:05:42.435Z,5.33
2019-06-01T02:08:12.366Z,5.47
2019-06-01T02:10:42.278Z,5.08
2019-06-01T02:13:12.081Z,4.72
2019-06-01T02:15:42.966Z,5.20
2019-06-01T02:18:12.846Z,5.08
2019-06-01T02:20:42.652Z,5.17
2019-06-01T02:23:12.482Z,4.75
2019-06-01T02:25:42.353Z,5.33
2019-06-01T02:28:12.175Z,4.78
2019-06-01T02:30:41.991Z,4.80
2019-06-01T02:33:11.812Z,4.72
2019-06-01T02:35:41.620Z,5.42
2019-06-01T02:38:11.452Z,5.72
2019-06-01T02:40:41.492Z,5.33
2019-06-01T02:43:11.356Z,4.37
2019-06-01T02:45:41.166Z,5.58
2019-06-01T02:48:10.999Z,4.87
2019-06-01T02:50:41.089Z,5.53
2019-06-01T02:53:11.046Z,5.08
2019-06-01T02:55:40.864Z,4.92
2019-06-01T02:58:10.676Z,5.17
2019-06-01T03:00:46.707Z,4.67
2019-06-01T03:03:16.879Z,4.20
2019-06-01T03:05:48.159Z,5.28
2019-06-01T03:08:18.908Z,5.72
2019-06-01T03:10:50.275Z,5.08
2019-06-01T03:13:21.681Z,5.33
2019-06-01T03:15:54.248Z,4.65
2019-06-01T03:18:25.772Z,4.75
2019-06-01T03:20:57.675Z,5.05
2019-06-01T03:23:29.467Z,4.62
2019-06-01T03:26:02.169Z,4.80
2019-06-01T03:28:41.214Z,5.30
2019-06-01T03:31:11.045Z,5.28
2019-06-01T03:33:40.884Z,5.22
2019-06-01T03:36:10.724Z,4.55
2019-06-01T03:38:41.177Z,5.55
2019-06-01T03:41:12.320Z,4.95
2019-06-01T03:43:42.199Z,4.87
2019-06-01T03:46:13.032Z,5.25
2019-06-01T03:48:42.914Z,4.55
2019-06-01T03:51:12.763Z,5.10
2019-06-01T03:53:42.571Z,4.95
2019-06-01T03:56:12.386Z,5.25
2019-06-01T03:58:42.191Z,5.17
2019-06-01T04:01:11.985Z,4.95
2019-06-01T04:03:41.805Z,4.42
2019-06-01T04:06:11.613Z,4.75
2019-06-01T04:08:41.423Z,4.95
2019-06-01T04:11:11.751Z,4.92
2019-06-01T04:13:41.551Z,5.12
2019-06-01T04:16:12.067Z,4.97
2019-06-01T04:18:41.886Z,4.40
2019-06-01T04:21:12.172Z,4.20
2019-06-01T04:23:41.950Z,5.00
2019-06-01T04:26:12.287Z,5.17
2019-06-01T04:28:42.082Z,4.25
2019-06-01T04:31:12.832Z,4.50
2019-06-01T04:33:42.676Z,4.55
2019-06-01T04:36:13.086Z,4.47
2019-06-01T04:38:43.092Z,5.00
2019-06-01T04:41:14.115Z,5.22
2019-06-01T04:43:44.030Z,5.62
2019-06-01T04:46:14.444Z,5.22
2019-06-01T04:48:44.229Z,5.30
2019-06-01T04:51:14.972Z,4.80
2019-06-01T04:53:44.738Z,5.30
2019-06-01T04:56:15.250Z,5.10
2019-06-01T04:58:45.139Z,4.72
2019-06-01T05:01:15.182Z,5.03
2019-06-01T05:03:44.970Z,4.92
2019-06-01T05:06:15.489Z,5.05
2019-06-01T05:08:45.270Z,5.47
2019-06-01T05:11:15.730Z,5.65
2019-06-01T05:13:45.550Z,5.17
2019-06-01T05:16:16.616Z,5.40
2019-06-01T05:18:46.447Z,5.25
2019-06-01T05:21:16.860Z,5.83
2019-06-01T05:23:46.683Z,5.17
2019-06-01T05:26:17.137Z,5.20
2019-06-01T05:28:46.990Z,5.58
2019-06-01T05:31:24.270Z,4.90
2019-06-01T05:33:48.343Z,4.72
2019-06-01T05:36:18.382Z,4.53
2019-06-01T05:38:48.251Z,5.08
2019-06-01T05:41:19.929Z,4.83
2019-06-01T05:43:49.584Z,4.85
2019-06-01T05:46:19.406Z,5.03
2019-06-01T05:48:49.210Z,4.85
2019-06-01T05:51:20.191Z,4.75
2019-06-01T05:53:50.028Z,5.20
2019-06-01T05:56:19.825Z,4.58
2019-06-01T05:58:49.638Z,4.58
2019-06-01T06:01:19.751Z,4.42
2019-06-01T06:03:49.572Z,4.78
2019-06-01T06:06:19.952Z,4.95
2019-06-01T06:08:49.781Z,4.83
2019-06-01T06:11:19.590Z,4.50
2019-06-01T06:13:49.403Z,4.78
2019-06-01T06:16:20.746Z,5.08
2019-06-01T06:18:50.787Z,5.08
2019-06-01T06:21:20.588Z,5.20
2019-06-01T06:23:50.397Z,4.92
2019-06-01T06:26:20.484Z,5.40
2019-06-01T06:28:50.795Z,4.70
2019-06-01T06:31:21.175Z,5.15
2019-06-01T06:33:56.634Z,5.15
2019-06-01T06:36:23.822Z,4.67
2019-06-01T06:38:53.703Z,5.08
2019-06-01T06:41:24.455Z,4.45
2019-06-01T06:43:54.273Z,5.00
2019-06-01T06:46:24.860Z,4.70
2019-06-01T06:48:54.666Z,4.28
2019-06-01T06:51:25.534Z,4.37
2019-06-01T06:53:55.351Z,4.42
2019-06-01T06:56:26.185Z,4.22
2019-06-01T06:58:56.072Z,4.70
2019-06-01T07:01:26.990Z,4.08
2019-06-01T07:04:11.544Z,3.58
2019-06-01T07:06:28.454Z,3.35
2019-06-01T07:08:58.257Z,3.25
2019-06-01T07:11:28.096Z,3.27
2019-06-01T07:13:57.886Z,2.65
2019-06-01T07:16:27.711Z,2.77
2019-06-01T07:18:57.501Z,2.85
2019-06-01T07:21:27.890Z,2.60
2019-06-01T07:23:57.712Z,2.98
2019-06-01T07:26:28.151Z,2.55
2019-06-01T07:28:58.008Z,3.22
2019-06-01T07:31:28.380Z,2.87
2019-06-01T07:33:58.203Z,2.85
2019-06-01T07:36:28.695Z,2.80
2019-06-01T07:38:58.516Z,2.92
2019-06-01T07:41:28.838Z,2.67
2019-06-01T07:43:58.731Z,3.10
2019-06-01T07:46:28.989Z,3.00
2019-06-01T07:48:58.797Z,2.47
2019-06-01T07:51:29.621Z,2.90
2019-06-01T07:53:59.481Z,3.02
2019-06-01T07:56:29.295Z,2.60
2019-06-01T07:58:59.155Z,2.92
2019-06-01T08:01:30.586Z,2.83
2019-06-01T08:04:00.486Z,3.10
2019-06-01T08:06:32.586Z,3.12
2019-06-01T08:09:01.846Z,2.50
2019-06-01T08:11:33.503Z,2.55
2019-06-01T08:14:03.816Z,2.70
2019-06-01T08:16:33.633Z,3.25
2019-06-01T08:19:03.437Z,2.60
2019-06-01T08:21:33.272Z,2.30
2019-06-01T08:24:03.164Z,2.92
2019-06-01T08:26:33.041Z,2.47
2019-06-01T08:29:02.867Z,2.45
2019-06-01T08:31:33.662Z,3.10
2019-06-01T08:34:03.603Z,2.62
2019-06-01T08:36:33.946Z,2.70
2019-06-01T08:39:05.195Z,2.92
2019-06-01T08:41:35.006Z,2.80
2019-06-01T08:44:05.348Z,2.47
2019-06-01T08:46:35.159Z,2.42
2019-06-01T08:49:05.091Z,2.55
2019-06-01T08:51:34.930Z,2.83
2019-06-01T08:54:05.086Z,2.87
2019-06-01T08:56:35.039Z,3.10
2019-06-01T08:59:05.216Z,2.92
2019-06-01T09:01:35.111Z,3.05
2019-06-01T09:04:04.973Z,3.40
2019-06-01T09:06:35.365Z,2.90
2019-06-01T09:09:10.915Z,2.33
2019-06-01T09:11:39.109Z,2.75
2019-06-01T09:14:08.917Z,3.00
2019-06-01T09:16:38.754Z,3.22
2019-06-01T09:19:11.201Z,3.02
2019-06-01T09:21:40.101Z,2.77
2019-06-01T09:24:09.917Z,2.75
2019-06-01T09:26:39.729Z,2.67
2019-06-01T09:29:09.553Z,3.08
2019-06-01T09:31:39.362Z,2.83
2019-06-01T09:34:09.192Z,3.55
2019-06-01T09:36:39.017Z,3.22
2019-06-01T09:39:09.004Z,3.92
2019-06-01T09:41:38.794Z,3.90
2019-06-01T09:44:08.605Z,3.90
2019-06-01T09:46:38.413Z,2.72
2019-06-01T09:49:08.240Z,2.77
2019-06-01T09:51:38.061Z,2.67
2019-06-01T09:54:07.884Z,3.17
2019-06-01T09:56:39.735Z,3.98
2019-06-01T09:59:09.189Z,3.45
2019-06-01T10:01:39.039Z,2.80
2019-06-01T10:04:09.291Z,2.80
2019-06-01T10:06:39.107Z,3.17
2019-06-01T10:09:09.476Z,2.72
2019-06-01T10:11:39.344Z,3.25
2019-06-01T10:14:09.161Z,3.25
2019-06-01T10:16:39.151Z,3.12
2019-06-01T10:19:08.991Z,3.10
2019-06-01T10:21:39.113Z,2.50
2019-06-01T10:24:08.933Z,2.77
2019-06-01T10:26:39.550Z,2.45
2019-06-01T10:29:10.140Z,2.80
2019-06-01T10:31:41.530Z,2.50
2019-06-01T10:34:11.478Z,2.35
2019-06-01T10:36:42.188Z,2.60
2019-06-01T10:39:12.070Z,2.62
2019-06-01T10:41:41.890Z,2.62
2019-06-01T10:44:11.750Z,2.75
2019-06-01T10:46:42.198Z,2.52
2019-06-01T10:49:12.019Z,2.60
2019-06-01T10:51:42.364Z,3.00
2019-06-01T10:54:12.220Z,2.62
2019-06-01T10:56:42.578Z,2.52
2019-06-01T10:59:12.419Z,2.10
2019-06-01T11:01:42.750Z,2.22
2019-06-01T11:04:12.858Z,2.17
2019-06-01T11:06:48.166Z,2.50
2019-06-01T11:09:14.169Z,2.27
2019-06-01T11:11:43.960Z,2.17
2019-06-01T11:14:13.791Z,2.55
2019-06-01T11:16:44.220Z,3.12
2019-06-01T11:19:14.155Z,2.40
2019-06-01T11:21:43.989Z,2.33
2019-06-01T11:24:12.861Z,2.47
2019-06-01T11:26:43.800Z,2.40
2019-06-01T11:29:13.725Z,2.65
2019-06-01T11:31:44.247Z,2.92
2019-06-01T11:34:14.054Z,2.83
2019-06-01T11:37:03.508Z,2.72
2019-06-01T11:39:15.395Z,2.90
2019-06-01T11:41:45.209Z,2.87
2019-06-01T11:44:15.021Z,2.33
2019-06-01T11:46:45.191Z,2.50
2019-06-01T11:49:15.010Z,2.52
2019-06-01T11:51:45.259Z,2.77
2019-06-01T11:54:15.160Z,3.72
2019-06-01T11:56:45.513Z,3.17
2019-06-01T11:59:15.336Z,3.25
2019-06-01T12:01:46.013Z,2.58
2019-06-01T12:04:15.914Z,2.95
2019-06-01T12:06:46.332Z,2.90
2019-06-01T12:09:16.412Z,2.67
2019-06-01T12:11:46.548Z,3.10
2019-06-01T12:14:16.394Z,2.72
2019-06-01T12:16:46.741Z,2.50
2019-06-01T12:19:16.758Z,2.72
2019-06-01T12:21:47.454Z,2.30
2019-06-01T12:24:17.411Z,1.80
2019-06-01T12:26:47.633Z,2.15
2019-06-01T12:29:17.495Z,2.60
2019-06-01T12:31:48.199Z,2.27
2019-06-01T12:34:18.042Z,2.02
2019-06-01T12:36:48.502Z,2.33
2019-06-01T12:39:18.341Z,2.75
2019-06-01T12:41:48.238Z,2.52
2019-06-01T12:44:18.060Z,2.85
2019-06-01T12:46:48.990Z,2.10
2019-06-01T12:49:18.895Z,2.20
2019-06-01T12:51:49.066Z,2.05
2019-06-01T12:54:18.911Z,2.40
2019-06-01T12:56:49.844Z,2.08
2019-06-01T12:59:19.725Z,2.30
2019-06-01T13:01:49.549Z,2.12
2019-06-01T13:04:19.349Z,2.30
2019-06-01T13:06:52.016Z,2.08
2019-06-01T13:09:20.674Z,2.08
2019-06-01T13:11:51.440Z,1.62
2019-06-01T13:14:21.293Z,1.90
2019-06-01T13:17:06.378Z,1.90
2019-06-01T13:19:22.634Z,2.00
2019-06-01T13:21:52.459Z,1.82
2019-06-01T13:24:22.254Z,1.75
2019-06-01T13:26:52.078Z,1.95
2019-06-01T13:29:21.877Z,2.00
2019-06-01T13:31:52.592Z,1.98
2019-06-01T13:34:22.495Z,1.90
2019-06-01T13:36:53.012Z,2.10
2019-06-01T13:39:22.904Z,1.80
2019-06-01T13:41:53.449Z,2.17
2019-06-01T13:44:23.294Z,2.35
2019-06-01T13:46:53.728Z,2.10
2019-06-01T13:49:23.487Z,1.80
2019-06-01T13:51:54.565Z,1.50
2019-06-01T13:54:24.551Z,1.30
2019-06-01T13:56:55.176Z,1.75
2019-06-01T13:59:25.212Z,1.62
2019-06-01T14:01:55.401Z,1.82
2019-06-01T14:04:25.280Z,1.80
2019-06-01T14:06:55.504Z,1.75
2019-06-01T14:09:25.301Z,2.55
2019-06-01T14:11:55.542Z,2.02
2019-06-01T14:14:25.409Z,1.50
2019-06-01T14:16:55.740Z,1.95
2019-06-01T14:19:25.619Z,1.80
2019-06-01T14:21:55.982Z,1.47
2019-06-01T14:24:25.789Z,2.15
2019-06-01T14:26:56.321Z,1.70
2019-06-01T14:29:26.298Z,1.82
2019-06-01T14:31:57.308Z,1.55
2019-06-01T14:34:27.183Z,1.75
2019-06-01T14:36:56.997Z,2.05
2019-06-01T14:39:26.812Z,1.60
2019-06-01T14:41:57.670Z,2.10
2019-06-01T14:44:27.516Z,1.65
2019-06-01T14:47:04.592Z,2.00
2019-06-01T14:49:29.127Z,1.77
2019-06-01T14:51:58.956Z,1.90
2019-06-01T14:54:28.789Z,1.92
2019-06-01T14:56:58.561Z,1.87
2019-06-01T14:59:28.358Z,1.45
2019-06-01T15:01:58.414Z,1.70
2019-06-01T15:04:28.314Z,1.75
2019-06-01T15:06:58.605Z,1.90
2019-06-01T15:09:28.405Z,1.70
2019-06-01T15:11:58.813Z,1.62
2019-06-01T15:14:28.966Z,1.57
2019-06-01T15:16:58.803Z,1.80
2019-06-01T15:19:28.616Z,1.40
2019-06-01T15:21:58.485Z,1.40
2019-06-01T15:24:28.298Z,1.90
2019-06-01T15:26:58.984Z,2.33
2019-06-01T15:29:28.845Z,1.85
2019-06-01T15:32:00.037Z,1.52
2019-06-01T15:34:29.959Z,1.60
2019-06-01T15:36:59.823Z,1.82
2019-06-01T15:39:29.746Z,2.02
2019-06-01T15:41:59.550Z,1.60
2019-06-01T15:44:29.463Z,1.50
2019-06-01T15:46:59.777Z,1.65
2019-06-01T15:49:29.810Z,1.65
2019-06-01T15:51:59.920Z,1.57
2019-06-01T15:54:29.801Z,1.40
2019-06-01T15:57:00.707Z,1.75
2019-06-01T15:59:30.602Z,1.70
2019-06-01T16:02:01.384Z,1.30
2019-06-01T16:04:31.284Z,1.35
2019-06-01T16:07:01.496Z,1.35
2019-06-01T16:09:42.038Z,1.40
2019-06-01T16:12:03.784Z,1.00
2019-06-01T16:14:33.748Z,1.70
2019-06-01T16:17:04.780Z,1.40
2019-06-01T16:19:34.856Z,1.60
2019-06-01T16:22:05.028Z,1.55
2019-06-01T16:24:35.015Z,1.45
2019-06-01T16:27:05.273Z,1.47
2019-06-01T16:29:35.082Z,1.27
2019-06-01T16:32:05.210Z,1.45
2019-06-01T16:34:35.059Z,1.60
2019-06-01T16:37:05.438Z,1.62
2019-06-01T16:39:35.328Z,1.40
2019-06-01T16:42:06.258Z,1.00
2019-06-01T16:44:36.287Z,1.10
2019-06-01T16:47:06.280Z,1.55
2019-06-01T16:49:36.106Z,1.72
2019-06-01T16:52:07.154Z,1.50
2019-06-01T16:54:37.186Z,1.60
2019-06-01T16:57:07.451Z,1.40
2019-06-01T16:59:37.449Z,1.45
2019-06-01T17:02:07.989Z,1.35
2019-06-01T17:04:37.876Z,1.65
2019-06-01T17:07:08.807Z,1.77
2019-06-01T17:09:39.050Z,1.30
2019-06-01T17:12:09.034Z,1.37
2019-06-01T17:14:39.301Z,1.60
2019-06-01T17:17:09.512Z,1.20
2019-06-01T17:19:39.445Z,1.40
2019-06-01T17:22:09.352Z,1.15
2019-06-01T17:24:39.280Z,1.20
2019-06-01T17:27:09.074Z,1.77
2019-06-01T17:29:38.995Z,1.00
2019-06-01T17:32:23.015Z,1.47
2019-06-01T17:34:40.965Z,1.40
2019-06-01T17:37:10.768Z,1.32
2019-06-01T17:39:40.858Z,1.30
2019-06-01T17:42:10.755Z,1.15
2019-06-01T17:44:40.565Z,1.60
2019-06-01T17:47:10.366Z,1.32
2019-06-01T17:49:40.164Z,1.40
2019-06-01T17:52:09.984Z,1.30
2019-06-01T17:54:39.814Z,1.85
2019-06-01T17:57:09.626Z,1.70
2019-06-01T17:59:39.503Z,1.50
2019-06-01T18:02:09.896Z,1.42
2019-06-01T18:04:39.871Z,1.57
2019-06-01T18:07:10.069Z,1.30
2019-06-01T18:09:39.886Z,1.30
2019-06-01T18:12:10.207Z,1.12
2019-06-01T18:14:40.054Z,1.42
2019-06-01T18:17:10.316Z,1.50
2019-06-01T18:19:40.339Z,1.50
2019-06-01T18:22:10.908Z,1.55
2019-06-01T18:24:40.774Z,1.30
2019-06-01T18:27:10.722Z,1.25
2019-06-01T18:29:48.147Z,1.45
2019-06-01T18:32:11.991Z,1.30
2019-06-01T18:34:41.791Z,1.40
2019-06-01T18:37:11.653Z,1.20
2019-06-01T18:39:41.535Z,1.40
2019-06-01T18:42:12.442Z,1.20
2019-06-01T18:44:42.250Z,1.37
2019-06-01T18:47:12.096Z,1.20
2019-06-01T18:49:41.913Z,1.40
2019-06-01T18:52:12.760Z,1.30
2019-06-01T18:54:42.619Z,1.47
2019-06-01T18:57:19.240Z,1.22
2019-06-01T18:59:44.206Z,1.50
2019-06-01T19:02:14.589Z,1.30
2019-06-01T19:04:44.386Z,1.52
2019-06-01T19:07:15.360Z,1.30
2019-06-01T19:09:45.307Z,1.20
2019-06-01T19:12:15.542Z,1.40
2019-06-01T19:14:45.414Z,1.40
2019-06-01T19:17:16.459Z,1.30
2019-06-01T19:19:46.329Z,1.70
2019-06-01T19:22:16.756Z,1.50
2019-06-01T19:24:46.519Z,1.50
2019-06-01T19:27:17.095Z,1.70
2019-06-01T19:29:46.960Z,1.22
2019-06-01T19:32:20.833Z,1.37
2019-06-01T19:34:48.835Z,1.62
2019-06-01T19:37:19.009Z,1.80
2019-06-01T19:39:49.465Z,1.60
2019-06-01T19:42:19.284Z,1.50
2019-06-01T19:44:49.126Z,1.75
2019-06-01T19:47:19.260Z,1.82
2019-06-01T19:49:49.077Z,1.82
2019-06-01T19:52:19.079Z,1.70
2019-06-01T19:54:48.887Z,1.45
2019-06-01T19:57:21.825Z,1.92
2019-06-01T19:59:50.237Z,1.85
2019-06-01T20:02:29.613Z,1.77
2019-06-01T20:04:51.578Z,1.80
2019-06-01T20:07:21.545Z,2.00
2019-06-01T20:09:51.363Z,1.62
2019-06-01T20:12:22.469Z,1.80
2019-06-01T20:14:52.371Z,1.92
2019-06-01T20:17:25.938Z,1.52
2019-06-01T20:19:53.709Z,1.92
2019-06-01T20:22:23.507Z,2.47
2019-06-01T20:24:53.328Z,2.30
2019-06-01T20:27:23.136Z,1.80
2019-06-01T20:29:52.941Z,2.83
2019-06-01T20:32:22.746Z,2.85
2019-06-01T20:34:52.573Z,3.25
2019-06-01T20:37:22.381Z,2.27
2019-06-01T20:39:52.217Z,2.70
2019-06-01T20:42:30.281Z,2.45
2019-06-01T20:44:53.540Z,3.22
2019-06-01T20:47:23.370Z,2.70
2019-06-01T20:49:53.201Z,2.15
2019-06-01T20:52:23.365Z,2.00
2019-06-01T20:54:53.152Z,2.00
2019-06-01T20:57:23.996Z,2.00
2019-06-01T20:59:53.844Z,2.00
2019-06-01T21:02:24.122Z,1.98
2019-06-01T21:04:53.970Z,1.87
2019-06-01T21:07:24.173Z,2.25
2019-06-01T21:09:54.089Z,2.70
2019-06-01T21:12:42.656Z,2.37
2019-06-01T21:14:55.675Z,1.70
2019-06-01T21:17:25.496Z,2.10
2019-06-01T21:19:55.305Z,2.20
2019-06-01T21:22:25.119Z,2.10
2019-06-01T21:24:54.962Z,3.77
2019-06-01T21:27:24.949Z,2.35
2019-06-01T21:29:54.765Z,1.85
2019-06-01T21:32:25.664Z,2.70
2019-06-01T21:34:55.487Z,2.08
2019-06-01T21:37:26.423Z,2.30
2019-06-01T21:39:56.284Z,1.90
2019-06-01T21:42:26.178Z,1.92
2019-06-01T21:44:56.006Z,2.05
2019-06-01T21:47:25.955Z,1.72
2019-06-01T21:49:55.690Z,1.92
2019-06-01T21:52:26.384Z,2.12
2019-06-01T21:54:56.302Z,2.20
2019-06-01T21:57:26.633Z,1.60
2019-06-01T21:59:56.531Z,2.17
2019-06-01T22:02:27.195Z,2.20
2019-06-01T22:04:57.046Z,1.85
2019-06-01T22:07:27.462Z,2.42
2019-06-01T22:09:57.316Z,2.55
2019-06-01T22:12:27.827Z,2.47
2019-06-01T22:14:57.615Z,2.60
2019-06-01T22:17:27.936Z,1.98
2019-06-01T22:19:57.833Z,2.65
2019-06-01T22:22:28.162Z,2.27
2019-06-01T22:24:58.093Z,2.47
2019-06-01T22:27:28.411Z,2.52
2019-06-01T22:29:58.506Z,2.30
2019-06-01T22:32:31.295Z,2.70
2019-06-01T22:34:59.841Z,2.37
2019-06-01T22:37:29.629Z,2.10
2019-06-01T22:39:59.440Z,2.50
2019-06-01T22:42:29.391Z,2.50
2019-06-01T22:44:59.202Z,1.98
2019-06-01T22:47:29.116Z,2.47
2019-06-01T22:49:58.926Z,2.37
2019-06-01T22:52:29.174Z,3.37
2019-06-01T22:54:59.113Z,3.10
2019-06-01T22:57:28.943Z,2.70
2019-06-01T22:59:58.838Z,3.17
2019-06-01T23:02:29.818Z,3.67
2019-06-01T23:04:59.755Z,3.35
2019-06-01T23:07:29.695Z,4.15
2019-06-01T23:09:59.510Z,4.62
2019-06-01T23:12:29.622Z,4.10
2019-06-01T23:14:59.405Z,5.83
2019-06-01T23:17:29.905Z,4.85
2019-06-01T23:19:59.888Z,4.67
2019-06-01T23:22:30.110Z,4.87
2019-06-01T23:25:00.089Z,4.30
2019-06-01T23:27:31.089Z,3.72
2019-06-01T23:30:01.330Z,3.40
2019-06-01T23:32:31.147Z,3.58
2019-06-01T23:35:00.963Z,4.03
2019-06-01T23:37:30.909Z,3.75
2019-06-01T23:40:00.768Z,3.85
2019-06-01T23:42:30.971Z,4.35
2019-06-01T23:45:00.886Z,4.12
2019-06-01T23:47:31.383Z,4.70
2019-06-01T23:50:01.556Z,4.17
2019-06-01T23:52:31.706Z,4.62
2019-06-01T23:55:01.657Z,4.85
2019-06-01T23:57:32.097Z,4.60
